Terminal Aerodrome Forecast
Issued by NWS

Home | Current Version | Previous Version | Text Only | Print | Product List | Glossary On
Versions: 1 2 3 4 5 6 7 8 9 10 11 12 13 14 15 16 17 18 19 20 21 22 23 24 25 26 27 28 29 30
000
FTUS43 KDMX 221730
TAFOTM
TAF
KOTM 221730Z 2218/2318 17006KT P6SM SCT050 BKN100
     FM222100 20006KT P6SM VCTS SCT025CB BKN040
     FM230000 14005KT P6SM SCT035 BKN070
     FM230800 09004KT 5SM BR VCTS SCT025CB OVC040
     FM231000 12007KT 3SM -TSRA BR BKN025CB
     FM231300 15007KT P6SM SCT030 BKN080=

USA.gov is the U.S. government's official web portal to all federal, state and local government web resources and services.